Time;durP1;ratioP1;P1;durP2;ratioP2;P2;SDS_P1;SDS_P2;PMS_P1;PMS_P2;Temp;Humidity;BMP_temperature;BMP_pressure;BME280_temperature;BME280_humidity;BME280_pressure;Samples;Min_cycle;Max_cycle;Signal;HPM_P1;HPM_P2
2023/01/05 00:01:09;;;;;;;1.03;0.70;;;;;;;12.43;100.00;100394.50;5054681;28;20450;-54
2023/01/05 00:03:36;;;;;;;0.30;0.20;;;;;;;12.53;100.00;100389.75;5054294;28;20847;-53
2023/01/05 00:06:05;;;;;;;0.40;0.30;;;;;;;12.46;100.00;100394.41;5054073;28;20505;-54
2023/01/05 00:08:31;;;;;;;0.40;0.30;;;;;;;12.59;100.00;100398.38;5054332;28;20564;-54
2023/01/05 00:22:30;;;;;;;0.30;0.20;;;;;;;12.52;100.00;100386.22;5042410;28;20483;-54
2023/01/05 00:25:12;;;;;;;0.30;0.20;;;;;;;12.66;100.00;100388.38;5053072;28;20465;-54
2023/01/05 00:27:40;;;;;;;0.30;0.20;;;;;;;12.61;100.00;100395.66;5053873;28;20481;-54
2023/01/05 00:30:09;;;;;;;0.40;0.20;;;;;;;12.67;100.00;100396.31;5040710;28;20458;-54
2023/01/05 00:32:35;;;;;;;0.40;0.20;;;;;;;12.67;100.00;100406.13;5053639;28;20450;-54
2023/01/05 00:35:02;;;;;;;0.30;0.20;;;;;;;12.71;100.00;100408.63;5053689;28;20451;-54
2023/01/05 00:37:31;;;;;;;0.30;0.20;;;;;;;12.79;100.00;100404.81;5035494;28;20529;-54
2023/01/05 00:39:58;;;;;;;0.30;0.20;;;;;;;12.87;100.00;100400.94;5053815;28;20458;-54
2023/01/05 00:42:25;;;;;;;0.37;0.23;;;;;;;12.86;100.00;100401.00;5053560;28;20493;-54
2023/01/05 00:44:52;;;;;;;0.37;0.27;;;;;;;12.96;100.00;100395.28;5053584;28;20455;-54
2023/01/05 00:47:19;;;;;;;1.63;0.50;;;;;;;12.90;100.00;100389.31;5053343;28;20505;-54
2023/01/05 00:49:45;;;;;;;0.50;0.30;;;;;;;12.99;100.00;100388.94;5053376;28;20820;-54
2023/01/05 00:52:11;;;;;;;0.37;0.20;;;;;;;12.81;100.00;100381.63;5053123;28;20454;-54
2023/01/05 00:54:38;;;;;;;0.40;0.30;;;;;;;12.87;100.00;100389.41;5053538;28;20894;-54
2023/01/05 00:57:06;;;;;;;0.30;0.20;;;;;;;12.85;100.00;100389.44;5053073;28;20466;-54
2023/01/05 00:59:32;;;;;;;0.40;0.30;;;;;;;13.07;100.00;100402.88;5053054;28;21001;-54
2023/01/05 01:01:59;;;;;;;0.30;0.20;;;;;;;12.90;100.00;100408.84;5053022;28;20486;-53
2023/01/05 01:04:25;;;;;;;2.63;0.30;;;;;;;12.75;100.00;100406.75;5053049;28;20458;-54
2023/01/05 01:06:53;;;;;;;0.40;0.30;;;;;;;12.77;100.00;100401.34;5052782;28;20569;-54
2023/01/05 01:09:20;;;;;;;0.40;0.33;;;;;;;12.73;100.00;100405.91;5053218;28;20473;-54
2023/01/05 01:11:46;;;;;;;0.40;0.30;;;;;;;12.75;100.00;100412.94;5052848;28;20451;-54
2023/01/05 01:14:13;;;;;;;0.30;0.20;;;;;;;12.68;100.00;100415.88;5053019;28;20458;-54
2023/01/05 01:16:41;;;;;;;0.30;0.20;;;;;;;12.53;100.00;100411.06;5052605;28;20471;-54
2023/01/05 01:19:13;;;;;;;0.30;0.20;;;;;;;12.51;100.00;100415.59;5052657;28;20451;-54
2023/01/05 01:21:39;;;;;;;0.30;0.20;;;;;;;12.59;100.00;100410.84;5052766;28;20576;-54
2023/01/05 01:24:06;;;;;;;2.30;0.77;;;;;;;12.47;100.00;100412.13;5052812;28;20443;-54
2023/01/05 01:26:33;;;;;;;0.33;0.20;;;;;;;12.46;100.00;100415.72;5052625;28;20467;-53
2023/01/05 01:28:59;;;;;;;0.47;0.30;;;;;;;12.49;100.00;100420.97;5052682;28;20453;-54
2023/01/05 01:31:25;;;;;;;0.40;0.30;;;;;;;12.62;100.00;100430.28;5052782;28;20443;-54
2023/01/05 01:33:52;;;;;;;1.47;0.40;;;;;;;12.60;100.00;100428.59;5052376;28;20828;-54
2023/01/05 01:36:19;;;;;;;0.60;0.60;;;;;;;12.57;100.00;100421.56;5051614;28;20486;-54
2023/01/05 01:38:45;;;;;;;5.23;0.37;;;;;;;12.58;100.00;100433.97;5052392;28;20958;-54
2023/01/05 01:41:12;;;;;;;5.60;0.57;;;;;;;12.57;100.00;100428.69;5052342;28;20446;-54
2023/01/05 01:43:45;;;;;;;0.50;0.20;;;;;;;12.55;100.00;100430.53;5052365;28;20544;-54
2023/01/05 01:46:13;;;;;;;0.40;0.30;;;;;;;12.63;100.00;100434.72;5052065;28;20474;-54
2023/01/05 01:48:45;;;;;;;6.13;0.40;;;;;;;12.70;100.00;100436.22;5052154;28;20811;-54
2023/01/05 01:51:21;;;;;;;0.40;0.40;;;;;;;12.54;100.00;100445.69;5052429;28;20449;-54
2023/01/05 01:53:53;;;;;;;35.50;0.70;;;;;;;12.64;100.00;100455.13;5052029;28;20803;-54
2023/01/05 01:56:22;;;;;;;0.40;0.40;;;;;;;12.66;100.00;100455.06;5052314;28;20842;-54
2023/01/05 01:58:49;;;;;;;6.00;0.80;;;;;;;12.59;100.00;100451.72;5051733;28;20954;-54
2023/01/05 02:01:15;;;;;;;1.53;0.70;;;;;;;12.72;100.00;100449.50;5052324;28;20447;-54
2023/01/05 02:03:43;;;;;;;4.27;0.57;;;;;;;12.63;100.00;100457.84;5051839;28;20991;-54
2023/01/05 02:06:10;;;;;;;0.50;0.33;;;;;;;12.66;100.00;100458.59;5034271;28;20494;-54
2023/01/05 02:08:37;;;;;;;1.33;1.07;;;;;;;12.77;100.00;100460.03;5051883;28;20451;-54
2023/01/05 02:11:28;;;;;;;1.50;0.50;;;;;;;12.71;100.00;100471.75;5051916;28;20455;-54
2023/01/05 02:14:00;;;;;;;0.50;0.50;;;;;;;12.55;100.00;100466.09;5039219;28;20823;-54
2023/01/05 02:16:45;;;;;;;0.57;0.40;;;;;;;12.58;100.00;100462.44;5051817;28;20475;-54
2023/01/05 02:19:36;;;;;;;7.33;1.13;;;;;;;12.57;100.00;100452.69;5051929;28;21027;-54
2023/01/05 02:22:15;;;;;;;0.83;0.83;;;;;;;12.60;100.00;100457.91;5051748;28;20875;-54
2023/01/05 02:25:35;;;;;;;5.30;1.03;;;;;;;12.52;100.00;100468.00;5051852;28;20447;-54
2023/01/05 02:28:32;;;;;;;0.90;0.67;;;;;;;12.72;100.00;100458.38;5051577;28;20529;-54
2023/01/05 02:31:18;;;;;;;13.13;1.20;;;;;;;12.77;100.00;100457.38;5051753;28;20453;-54
2023/01/05 02:34:01;;;;;;;2.50;0.50;;;;;;;12.78;100.00;100462.63;5051754;28;20439;-54
2023/01/05 02:36:52;;;;;;;9.50;0.90;;;;;;;12.52;100.00;100457.31;5051497;28;20490;-54
2023/01/05 02:39:44;;;;;;;2.77;1.33;;;;;;;12.53;100.00;100467.06;5047209;28;20429;-54
2023/01/05 02:42:18;;;;;;;4.77;1.27;;;;;;;12.54;100.00;100479.47;5051684;28;20494;-54
2023/01/05 02:44:45;;;;;;;1.17;0.67;;;;;;;12.63;100.00;100481.84;5051476;28;20473;-54
2023/01/05 02:47:26;;;;;;;1.70;1.03;;;;;;;12.61;100.00;100481.91;5052182;28;20474;-54
2023/01/05 02:50:08;;;;;;;1.27;0.80;;;;;;;12.67;100.00;100481.66;5055704;28;20545;-54
2023/01/05 02:52:41;;;;;;;12.50;1.00;;;;;;;12.44;100.00;100478.91;5055336;28;20964;-54
2023/01/05 02:55:12;;;;;;;0.73;0.73;;;;;;;12.49;100.00;100474.31;5055444;28;20450;-54
2023/01/05 02:57:49;;;;;;;4.53;1.70;;;;;;;12.49;100.00;100474.31;5055455;28;20478;-54
2023/01/05 03:00:21;;;;;;;5.90;1.00;;;;;;;12.40;100.00;100474.59;5055451;28;20443;-54
2023/01/05 03:02:51;;;;;;;2.00;0.60;;;;;;;12.41;100.00;100474.53;5055419;28;20517;-54
2023/01/05 03:05:50;;;;;;;3.00;0.67;;;;;;;12.49;100.00;100478.75;5055280;28;20452;-54
2023/01/05 03:08:21;;;;;;;27.83;1.83;;;;;;;12.43;100.00;100477.16;5049968;28;20453;-54
2023/01/05 03:14:02;;;;;;;1.80;1.27;;;;;;;12.35;100.00;100477.44;5055053;28;20442;-54
2023/01/05 03:16:34;;;;;;;4.23;1.00;;;;;;;12.36;100.00;100483.63;5055239;28;20549;-54
2023/01/05 03:35:53;;;;;;;0.90;0.70;;;;;;;12.07;97.34;100488.09;5054673;28;20866;-54
2023/01/05 03:38:25;;;;;;;10.93;1.80;;;;;;;12.02;95.07;100486.47;5054821;28;20476;-54
2023/01/05 03:40:56;;;;;;;0.87;0.87;;;;;;;12.12;93.51;100491.47;5054541;28;20446;-54
2023/01/05 03:43:23;;;;;;;8.40;0.70;;;;;;;12.08;92.98;100488.97;5054902;28;20522;-54
2023/01/05 03:45:56;;;;;;;2.70;1.27;;;;;;;12.05;92.85;100486.38;5054503;28;20551;-54
2023/01/05 03:48:26;;;;;;;3.23;0.70;;;;;;;12.08;91.20;100500.50;5054803;28;20451;-54
2023/01/05 03:50:53;;;;;;;2.77;0.47;;;;;;;12.19;92.06;100504.59;5054514;28;20451;-54
2023/01/05 03:53:19;;;;;;;3.80;0.80;;;;;;;12.07;91.86;100512.09;5054412;28;20422;-54
2023/01/05 03:55:46;;;;;;;0.50;0.30;;;;;;;12.06;90.68;100506.78;5054485;28;20442;-54
2023/01/05 03:58:12;;;;;;;1.43;0.83;;;;;;;12.11;91.86;100510.19;5054259;28;20454;-54
2023/01/05 04:00:38;;;;;;;10.33;1.73;;;;;;;12.02;91.39;100515.78;5053761;28;20455;-54
2023/01/05 04:03:05;;;;;;;3.40;2.67;;;;;;;12.18;91.48;100522.38;5054340;28;20493;-54
2023/01/05 04:05:32;;;;;;;1.17;0.63;;;;;;;12.22;91.39;100531.19;5054176;28;20417;-54
2023/01/05 04:07:58;;;;;;;1.37;0.60;;;;;;;12.13;91.79;100527.88;5054010;28;20458;-54
2023/01/05 04:10:24;;;;;;;10.83;1.40;;;;;;;12.12;92.65;100523.47;5054237;28;21021;-54
2023/01/05 04:12:51;;;;;;;0.40;0.30;;;;;;;12.20;92.56;100541.00;5054298;28;20525;-54
2023/01/05 04:15:19;;;;;;;14.43;1.40;;;;;;;12.20;92.88;100539.22;5054530;28;20451;-54
2023/01/05 04:17:45;;;;;;;1.67;0.70;;;;;;;12.11;93.76;100536.84;5054230;28;20829;-54
2023/01/05 04:20:12;;;;;;;2.80;0.60;;;;;;;12.19;93.16;100544.56;5054149;28;20474;-54
2023/01/05 04:22:38;;;;;;;3.13;0.53;;;;;;;12.02;92.96;100545.97;5036340;28;21070;-54
2023/01/05 04:25:05;;;;;;;12.93;2.00;;;;;;;12.05;93.83;100545.88;5054052;28;20450;-54
2023/01/05 04:27:32;;;;;;;22.20;2.07;;;;;;;12.02;93.82;100548.63;5054174;28;20467;-54
2023/01/05 04:29:58;;;;;;;4.37;0.70;;;;;;;12.15;93.57;100531.34;5054126;28;20473;-54
2023/01/05 04:32:25;;;;;;;4.17;0.87;;;;;;;12.15;93.68;100539.34;5054070;28;20451;-54
2023/01/05 04:34:51;;;;;;;28.53;1.73;;;;;;;12.15;93.90;100539.34;5053713;28;20462;-54
2023/01/05 04:37:17;;;;;;;8.60;2.00;;;;;;;12.10;93.90;100543.09;5053983;28;20502;-54
2023/01/05 04:39:44;;;;;;;2.57;0.53;;;;;;;12.15;93.95;100557.13;5054024;28;20836;-54
2023/01/05 04:42:10;;;;;;;2.37;0.60;;;;;;;12.24;93.59;100567.53;5053926;28;20426;-54
2023/01/05 04:44:37;;;;;;;8.03;0.90;;;;;;;12.26;93.03;100560.34;5053702;28;20903;-54
2023/01/05 04:47:03;;;;;;;20.67;1.00;;;;;;;12.16;93.63;100561.53;5053720;28;20477;-54
2023/01/05 04:49:30;;;;;;;12.20;0.43;;;;;;;12.33;92.61;100555.69;5053466;28;20967;-54
2023/01/05 04:51:56;;;;;;;1.33;1.23;;;;;;;12.11;93.41;100561.69;5053864;28;20477;-54
2023/01/05 04:54:23;;;;;;;12.87;1.17;;;;;;;12.26;93.08;100560.34;5053734;28;20443;-54
2023/01/05 04:56:49;;;;;;;6.90;1.00;;;;;;;12.23;93.40;100572.91;5053414;28;20477;-54
2023/01/05 04:59:15;;;;;;;1.43;0.70;;;;;;;11.99;94.37;100575.38;5053558;28;20458;-54
2023/01/05 05:01:42;;;;;;;14.87;1.43;;;;;;;12.10;94.42;100572.41;5053407;28;20883;-54
2023/01/05 05:04:09;;;;;;;6.83;1.20;;;;;;;12.11;93.63;100585.66;5053194;28;20580;-54
2023/01/05 05:06:35;;;;;;;3.23;2.30;;;;;;;11.93;94.14;100582.69;5053250;28;20482;-54
2023/01/05 05:09:02;;;;;;;2.57;1.47;;;;;;;12.24;93.13;100593.28;5053494;28;20451;-54
2023/01/05 05:11:28;;;;;;;0.40;0.40;;;;;;;12.08;94.19;100582.22;5053163;28;20450;-54
2023/01/05 05:13:55;;;;;;;7.20;0.70;;;;;;;12.10;93.21;100593.72;5053368;28;20479;-54
2023/01/05 05:16:21;;;;;;;14.07;1.00;;;;;;;12.13;93.38;100607.81;5053083;28;20470;-54
2023/01/05 05:18:48;;;;;;;2.30;0.70;;;;;;;12.28;93.47;100613.59;5053076;28;20447;-54
2023/01/05 05:21:14;;;;;;;2.17;0.97;;;;;;;12.20;93.00;100607.63;5053216;28;20450;-54
2023/01/05 05:23:41;;;;;;;0.90;0.90;;;;;;;12.22;92.40;100606.69;5052845;28;20487;-54
2023/01/05 05:26:07;;;;;;;1.27;1.27;;;;;;;12.31;92.50;100616.16;5052937;28;20473;-54
2023/01/05 05:28:34;;;;;;;7.63;1.10;;;;;;;12.04;93.61;100615.19;5052921;28;20459;-55
2023/01/05 05:31:01;;;;;;;1.57;1.10;;;;;;;12.18;92.90;100617.44;5052782;28;20428;-55
2023/01/05 05:33:27;;;;;;;2.43;1.80;;;;;;;12.22;92.66;100629.78;5052740;28;20454;-54
2023/01/05 05:35:53;;;;;;;0.50;0.40;;;;;;;12.15;93.15;100621.09;5053127;28;21065;-54
2023/01/05 05:38:20;;;;;;;5.90;1.43;;;;;;;12.06;92.69;100622.25;5052611;28;20828;-54
2023/01/05 05:40:49;;;;;;;14.57;1.67;;;;;;;12.12;93.25;100624.72;5052767;28;20462;-53
2023/01/05 05:43:16;;;;;;;4.90;0.50;;;;;;;12.13;92.61;100617.59;5052653;28;20493;-54
2023/01/05 05:45:42;;;;;;;1.43;1.33;;;;;;;12.09;92.60;100627.47;5052268;28;20454;-54
2023/01/05 05:48:16;;;;;;;0.50;0.40;;;;;;;12.11;93.15;100625.66;5053014;28;20453;-54
2023/01/05 05:50:43;;;;;;;0.87;0.83;;;;;;;12.04;92.74;100628.50;5052638;28;20550;-54
2023/01/05 05:53:10;;;;;;;1.90;0.40;;;;;;;12.02;93.18;100631.22;5052674;28;20447;-54
2023/01/05 05:55:36;;;;;;;1.40;0.90;;;;;;;11.99;93.65;100631.31;5052227;28;20454;-54
2023/01/05 05:58:02;;;;;;;8.90;0.90;;;;;;;11.85;93.59;100633.50;5052305;28;20451;-54
2023/01/05 06:00:29;;;;;;;36.37;1.47;;;;;;;11.71;94.16;100648.97;5052154;28;20443;-54
2023/01/05 06:02:55;;;;;;;1.23;1.13;;;;;;;11.92;93.55;100652.84;5052391;28;20491;-53
2023/01/05 06:05:22;;;;;;;0.60;0.40;;;;;;;11.86;93.54;100660.09;5052299;28;20450;-54
2023/01/05 06:07:48;;;;;;;16.97;1.40;;;;;;;11.84;93.91;100661.94;5051953;28;20479;-53
2023/01/05 06:10:15;;;;;;;7.97;1.13;;;;;;;11.85;93.45;100662.81;5052126;28;20446;-54
2023/01/05 06:12:41;;;;;;;13.37;1.90;;;;;;;11.88;94.36;100669.84;5052110;28;20504;-54
2023/01/05 06:15:09;;;;;;;0.80;0.73;;;;;;;11.88;93.58;100659.19;5051937;28;20457;-54
2023/01/05 06:17:35;;;;;;;1.50;1.07;;;;;;;12.09;93.23;100667.44;5052301;28;20489;-54
2023/01/05 06:20:02;;;;;;;7.30;0.90;;;;;;;12.08;93.31;100667.50;5052050;28;21023;-54
2023/01/05 06:22:28;;;;;;;8.67;0.90;;;;;;;11.93;93.51;100674.13;5051719;28;20458;-53
2023/01/05 06:24:55;;;;;;;1.33;0.67;;;;;;;11.86;92.95;100665.44;5051816;28;21019;-53
2023/01/05 06:27:21;;;;;;;3.67;0.60;;;;;;;11.92;93.88;100674.16;5051995;28;20477;-53
2023/01/05 06:29:47;;;;;;;0.57;0.30;;;;;;;12.12;92.67;100669.16;5051904;28;20486;-54
2023/01/05 06:32:14;;;;;;;1.37;0.43;;;;;;;12.05;93.75;100676.44;5052216;28;20443;-53
2023/01/05 06:34:40;;;;;;;7.27;0.40;;;;;;;11.94;93.87;100683.88;5052040;28;20481;-53
2023/01/05 06:37:07;;;;;;;0.80;0.50;;;;;;;12.04;94.60;100681.81;5051820;28;20990;-53
2023/01/05 06:39:33;;;;;;;0.70;0.43;;;;;;;11.72;96.73;100688.88;5051971;28;20782;-53
2023/01/05 06:41:59;;;;;;;3.67;0.80;;;;;;;11.73;97.78;100687.06;5034169;28;20446;-53
2023/01/05 06:44:26;;;;;;;0.60;0.57;;;;;;;11.64;99.31;100689.97;5052027;28;20539;-53
2023/01/05 06:46:52;;;;;;;1.87;0.63;;;;;;;11.60;99.65;100694.50;5052010;28;20524;-53
2023/01/05 06:49:19;;;;;;;1.70;0.60;;;;;;;11.51;100.00;100700.97;5051929;28;20455;-53
2023/01/05 06:51:45;;;;;;;12.43;0.97;;;;;;;11.61;100.00;100698.06;5051759;28;20461;-53
2023/01/05 06:54:12;;;;;;;0.60;0.50;;;;;;;11.44;100.00;100698.50;5052068;28;20447;-54
2023/01/05 06:56:38;;;;;;;1.37;1.27;;;;;;;11.21;100.00;100699.94;5051630;28;20481;-53
2023/01/05 06:59:05;;;;;;;9.43;0.40;;;;;;;11.35;100.00;100707.56;5051810;28;20442;-53
2023/01/05 07:01:31;;;;;;;3.40;0.70;;;;;;;11.05;100.00;100706.53;5051946;28;20863;-54
2023/01/05 07:03:58;;;;;;;0.93;0.93;;;;;;;11.19;100.00;100698.22;5051674;28;21023;-53
2023/01/05 07:06:24;;;;;;;5.40;0.70;;;;;;;11.17;100.00;100700.94;5033960;28;20510;-54
2023/01/05 07:08:51;;;;;;;2.00;1.90;;;;;;;11.05;100.00;100703.88;5051586;28;20455;-53
2023/01/05 07:11:17;;;;;;;8.60;1.17;;;;;;;11.01;100.00;100704.88;5051668;28;20447;-53
2023/01/05 07:13:48;;;;;;;1.87;1.10;;;;;;;11.16;100.00;100714.28;5051621;28;20954;-54
2023/01/05 07:16:15;;;;;;;4.57;0.40;;;;;;;11.04;100.00;100712.78;5051739;28;20486;-53
2023/01/05 07:18:42;;;;;;;5.30;1.27;;;;;;;10.95;100.00;100718.31;5051523;28;20450;-53
2023/01/05 07:21:08;;;;;;;9.00;1.43;;;;;;;10.95;100.00;100721.84;5051714;28;20450;-53
2023/01/05 07:23:37;;;;;;;3.03;1.40;;;;;;;11.07;100.00;100727.78;5051415;28;20479;-53
2023/01/05 07:26:05;;;;;;;3.93;0.93;;;;;;;11.00;100.00;100720.88;5051407;28;21720;-54
2023/01/05 07:28:32;;;;;;;8.97;0.40;;;;;;;10.91;100.00;100714.84;5051420;28;20541;-54
2023/01/05 07:30:59;;;;;;;2.50;0.87;;;;;;;10.97;100.00;100714.72;5051414;28;20478;-54
2023/01/05 07:33:25;;;;;;;4.63;1.40;;;;;;;10.96;100.00;100712.06;5051523;28;20978;-54
2023/01/05 07:35:52;;;;;;;5.67;1.60;;;;;;;10.95;100.00;100720.97;5054572;28;20461;-53
2023/01/05 07:38:18;;;;;;;0.50;0.43;;;;;;;11.04;100.00;100719.88;5054887;28;20542;-54
2023/01/05 07:40:45;;;;;;;4.90;1.00;;;;;;;10.98;100.00;100718.25;5055274;28;20498;-53
2023/01/05 07:43:11;;;;;;;1.33;1.13;;;;;;;10.84;100.00;100721.22;5054903;28;20454;-53
2023/01/05 07:45:38;;;;;;;16.70;1.13;;;;;;;11.06;100.00;100726.91;5054653;28;20816;-54
2023/01/05 07:48:05;;;;;;;1.93;0.57;;;;;;;11.08;100.00;100732.19;5037200;28;20451;-54
2023/01/05 07:50:31;;;;;;;0.67;0.30;;;;;;;11.08;100.00;100733.06;5054795;28;20450;-53
2023/01/05 07:52:58;;;;;;;2.23;0.77;;;;;;;11.31;100.00;100750.28;5054643;28;20450;-53
2023/01/05 07:55:25;;;;;;;1.00;0.63;;;;;;;11.20;100.00;100759.38;5054772;28;20458;-54
2023/01/05 07:57:51;;;;;;;6.93;1.83;;;;;;;11.13;100.00;100760.47;5054700;28;20474;-54
2023/01/05 08:00:18;;;;;;;2.47;1.13;;;;;;;11.10;100.00;100749.91;5054681;28;20443;-54
2023/01/05 08:02:45;;;;;;;5.20;1.37;;;;;;;11.24;100.00;100757.56;5054620;28;20458;-53
2023/01/05 08:05:11;;;;;;;16.43;0.97;;;;;;;11.22;100.00;100749.56;5054367;28;20534;-54
2023/01/05 08:07:38;;;;;;;24.07;0.70;;;;;;;11.47;100.00;100746.31;5054139;28;20565;-54
2023/01/05 08:15:35;;;;;;;0.40;0.30;;;;;;;11.24;100.00;100770.88;5042182;28;20451;-54
2023/01/05 08:18:01;;;;;;;3.70;1.00;;;;;;;11.34;100.00;100769.72;5054201;28;20569;-53
2023/01/05 08:20:28;;;;;;;5.30;0.80;;;;;;;11.40;100.00;100782.00;5054371;28;20446;-54
2023/01/05 08:22:54;;;;;;;2.20;1.13;;;;;;;11.45;100.00;100782.75;5054247;28;20805;-53
2023/01/05 08:25:21;;;;;;;4.40;0.67;;;;;;;11.51;100.00;100782.59;5053971;28;20943;-54
2023/01/05 08:27:47;;;;;;;1.50;0.80;;;;;;;11.46;100.00;100785.38;5053895;28;20540;-54
2023/01/05 08:30:14;;;;;;;2.73;0.63;;;;;;;11.51;100.00;100788.84;5054214;28;20462;-53
2023/01/05 08:32:41;;;;;;;2.50;0.97;;;;;;;11.40;100.00;100796.19;5053878;28;20959;-53
2023/01/05 08:35:08;;;;;;;7.70;0.60;;;;;;;11.44;100.00;100800.53;5054031;28;20458;-54
2023/01/05 08:37:34;;;;;;;5.17;2.00;;;;;;;11.54;100.00;100810.03;5053734;28;20501;-54
2023/01/05 08:40:01;;;;;;;2.73;0.60;;;;;;;11.61;100.00;100808.09;5053982;28;20451;-53
2023/01/05 08:42:27;;;;;;;4.57;1.50;;;;;;;11.67;100.00;100812.41;5053742;28;20450;-54
2023/01/05 08:44:53;;;;;;;0.70;0.40;;;;;;;11.71;100.00;100806.97;5053233;28;20517;-54
2023/01/05 08:47:20;;;;;;;0.40;0.40;;;;;;;11.76;100.00;100806.84;5053492;28;20467;-54
2023/01/05 08:49:53;;;;;;;6.80;2.20;;;;;;;11.79;100.00;100813.03;5053873;28;20515;-54
2023/01/05 08:52:21;;;;;;;1.43;0.40;;;;;;;11.72;100.00;100802.50;5053660;28;20455;-54
2023/01/05 08:54:48;;;;;;;1.33;1.23;;;;;;;11.73;100.00;100807.78;5053645;28;20451;-53
2023/01/05 08:57:15;;;;;;;1.97;1.87;;;;;;;11.85;100.00;100807.53;5053457;28;20445;-54
2023/01/05 08:59:41;;;;;;;0.90;0.40;;;;;;;11.72;100.00;100810.50;5053350;28;20455;-54
2023/01/05 09:02:11;;;;;;;1.63;0.80;;;;;;;12.05;100.00;100812.31;5053414;28;20459;-53
2023/01/05 09:04:38;;;;;;;10.27;0.83;;;;;;;11.97;100.00;100808.13;5053444;28;20861;-53
2023/01/05 09:07:05;;;;;;;1.53;0.97;;;;;;;12.01;100.00;100807.13;5053160;28;20501;-54
2023/01/05 09:09:31;;;;;;;2.00;0.80;;;;;;;12.05;100.00;100809.66;5053296;28;20943;-54
2023/01/05 09:11:58;;;;;;;4.03;1.90;;;;;;;11.81;100.00;100810.31;5052901;28;20871;-54
2023/01/05 09:14:24;;;;;;;4.90;0.83;;;;;;;12.18;100.00;100815.53;5053321;28;20886;-54
2023/01/05 09:16:51;;;;;;;0.40;0.30;;;;;;;12.01;100.00;100810.66;5053048;28;20489;-54
2023/01/05 09:19:34;;;;;;;8.03;0.87;;;;;;;12.00;100.00;100816.91;5053142;28;20612;-54
2023/01/05 09:22:01;;;;;;;0.57;0.30;;;;;;;12.00;100.00;100819.56;5053130;28;20454;-54
2023/01/05 09:24:28;;;;;;;6.33;1.17;;;;;;;12.09;100.00;100822.00;5052859;28;20869;-55
2023/01/05 09:26:55;;;;;;;3.90;0.80;;;;;;;12.09;100.00;100824.69;5053018;28;20445;-54
2023/01/05 09:29:21;;;;;;;8.33;1.60;;;;;;;12.26;100.00;100823.34;5053250;28;20516;-54
2023/01/05 09:31:48;;;;;;;1.57;0.40;;;;;;;12.17;100.00;100827.13;5052948;28;20451;-54
2023/01/05 09:34:15;;;;;;;10.43;0.97;;;;;;;12.23;100.00;100826.09;5052711;28;20525;-53
2023/01/05 09:36:41;;;;;;;0.90;0.60;;;;;;;12.22;100.00;100821.69;5052501;28;20554;-53
2023/01/05 09:39:08;;;;;;;14.63;1.97;;;;;;;11.90;100.00;100817.19;5052396;28;20443;-53
2023/01/05 09:41:46;;;;;;;9.83;1.73;;;;;;;11.78;100.00;100816.53;5052701;28;20473;-54
2023/01/05 09:44:38;;;;;;;4.73;0.90;;;;;;;11.85;100.00;100826.16;5034692;28;20493;-53
2023/01/05 09:47:24;;;;;;;1.07;0.50;;;;;;;12.08;100.00;100819.38;5052456;28;20469;-54
2023/01/05 09:49:53;;;;;;;2.87;0.60;;;;;;;12.05;100.00;100820.31;5052760;28;20453;-54
2023/01/05 09:52:21;;;;;;;0.50;0.43;;;;;;;12.40;100.00;100815.84;5052450;28;20447;-53
2023/01/05 09:54:48;;;;;;;3.00;0.57;;;;;;;12.30;100.00;100825.00;5052528;28;20443;-54
2023/01/05 09:57:17;;;;;;;4.53;1.20;;;;;;;12.29;100.00;100825.91;5051591;28;20877;-54
2023/01/05 09:59:51;;;;;;;2.10;2.00;;;;;;;12.49;100.00;100823.59;5052531;28;20880;-54
2023/01/05 10:02:28;;;;;;;2.63;0.67;;;;;;;12.42;100.00;100819.34;5052268;28;20457;-54
2023/01/05 10:04:57;;;;;;;7.17;0.60;;;;;;;12.46;99.31;100818.31;5052373;28;20965;-54
2023/01/05 10:07:36;;;;;;;5.30;0.90;;;;;;;12.68;98.31;100815.94;5045176;28;20474;-54
2023/01/05 10:10:16;;;;;;;14.67;2.07;;;;;;;12.93;97.93;100818.78;5052214;28;20497;-54
2023/01/05 10:13:02;;;;;;;3.50;1.17;;;;;;;12.89;95.72;100815.34;5052721;28;20822;-53
2023/01/05 10:15:38;;;;;;;5.30;1.63;;;;;;;12.90;96.02;100827.75;5052397;28;20443;-53
2023/01/05 10:18:14;;;;;;;2.77;1.37;;;;;;;12.85;95.17;100834.13;5052327;28;20525;-53
2023/01/05 10:21:10;;;;;;;12.60;1.93;;;;;;;12.93;93.69;100832.13;5052191;28;20885;-53
2023/01/05 10:23:40;;;;;;;13.70;2.20;;;;;;;12.73;93.98;100836.22;5052119;28;20948;-53
2023/01/05 10:26:27;;;;;;;4.50;1.80;;;;;;;12.73;93.87;100838.88;5051909;28;20445;-53
2023/01/05 10:29:10;;;;;;;10.53;1.63;;;;;;;12.81;93.56;100837.81;5052172;28;20450;-53
2023/01/05 10:31:52;;;;;;;12.03;1.63;;;;;;;12.76;93.80;100829.94;5052227;28;20458;-54
2023/01/05 10:34:35;;;;;;;3.33;0.70;;;;;;;12.61;94.23;100823.25;5051870;28;21003;-54
2023/01/05 10:37:20;;;;;;;19.67;2.23;;;;;;;12.66;93.81;100832.00;5051828;28;21014;-54
2023/01/05 10:40:13;;;;;;;4.43;0.87;;;;;;;12.70;94.07;100822.97;5051810;28;20932;-54
2023/01/05 10:43:17;;;;;;;21.13;1.00;;;;;;;12.93;94.29;100838.31;5051678;28;20547;-53
2023/01/05 10:45:43;;;;;;;2.60;1.20;;;;;;;12.95;92.88;100827.59;5051466;28;20486;-54
2023/01/05 10:48:34;;;;;;;6.23;2.07;;;;;;;13.07;93.26;100832.59;5052049;28;20833;-54
2023/01/05 10:51:02;;;;;;;8.10;1.03;;;;;;;13.00;93.17;100833.66;5051692;28;20429;-54
2023/01/05 10:53:34;;;;;;;8.43;2.47;;;;;;;13.03;93.18;100831.81;5051919;28;20457;-53
2023/01/05 10:56:21;;;;;;;5.73;0.97;;;;;;;13.15;92.14;100843.00;5051736;28;20463;-54
2023/01/05 10:59:06;;;;;;;13.23;1.20;;;;;;;13.03;92.46;100831.81;5034190;28;20416;-53
2023/01/05 11:01:34;;;;;;;23.33;1.77;;;;;;;13.19;92.35;100840.25;5051922;28;20418;-54
2023/01/05 11:04:06;;;;;;;10.03;1.80;;;;;;;13.23;91.17;100847.25;5051539;28;21035;-54
2023/01/05 11:07:03;;;;;;;12.17;1.20;;;;;;;13.19;91.63;100840.25;5036489;28;20474;-53
2023/01/05 11:09:29;;;;;;;8.93;1.00;;;;;;;13.36;91.54;100849.53;5054701;28;20448;-54
2023/01/05 11:11:58;;;;;;;4.73;1.00;;;;;;;13.28;91.76;100847.97;5055549;28;20477;-53
2023/01/05 11:14:26;;;;;;;1.83;0.67;;;;;;;13.17;91.81;100844.72;5055719;28;20446;-54
2023/01/05 11:16:59;;;;;;;10.20;1.00;;;;;;;13.37;91.57;100852.16;5055247;28;20979;-54
2023/01/05 11:19:40;;;;;;;6.43;1.03;;;;;;;13.21;92.65;100848.22;5055867;28;20453;-54
2023/01/05 11:22:29;;;;;;;5.70;0.73;;;;;;;13.17;93.10;100846.53;5055555;28;20462;-54
2023/01/05 11:25:29;;;;;;;1.27;0.97;;;;;;;13.20;93.06;100851.81;5055313;28;20535;-53
2023/01/05 11:28:15;;;;;;;6.07;1.50;;;;;;;13.13;93.27;100852.84;5040239;28;20552;-53
2023/01/05 11:30:47;;;;;;;11.30;3.53;;;;;;;13.08;93.79;100863.69;5055153;28;20932;-54
2023/01/05 11:33:24;;;;;;;11.43;1.70;;;;;;;13.09;94.42;100864.56;5055248;28;20422;-53
2023/01/05 11:35:51;;;;;;;3.80;1.60;;;;;;;13.15;94.72;100867.03;5055059;28;20466;-54
2023/01/05 11:38:26;;;;;;;6.37;1.13;;;;;;;13.17;94.74;100851.88;5050539;28;20497;-54
2023/01/05 11:40:56;;;;;;;13.20;2.33;;;;;;;13.20;94.75;100857.16;5055002;28;20529;-54
2023/01/05 11:43:26;;;;;;;22.57;1.53;;;;;;;13.34;94.39;100860.25;5055006;28;20425;-54
2023/01/05 11:45:57;;;;;;;7.17;1.37;;;;;;;13.36;94.62;100861.09;5054753;28;20498;-55
2023/01/05 11:48:27;;;;;;;2.07;1.97;;;;;;;13.46;93.91;100865.22;5054800;28;20428;-55
2023/01/05 11:50:56;;;;;;;3.83;1.77;;;;;;;13.50;93.67;100861.53;5054913;28;20517;-54
2023/01/05 11:53:33;;;;;;;6.53;1.73;;;;;;;13.51;93.09;100862.41;5054987;28;20465;-54
2023/01/05 11:56:18;;;;;;;3.17;1.80;;;;;;;13.53;93.82;100866.78;5054889;28;20462;-54
2023/01/05 11:58:46;;;;;;;2.50;0.93;;;;;;;13.57;92.71;100863.09;5054475;28;20553;-54
2023/01/05 12:01:31;;;;;;;3.90;0.80;;;;;;;13.65;92.97;100865.50;5054394;28;20837;-55
2023/01/05 12:04:22;;;;;;;9.90;1.57;;;;;;;13.57;91.67;100862.22;5054809;28;20447;-54
2023/01/05 12:07:01;;;;;;;4.10;0.80;;;;;;;13.57;91.82;100864.91;5054052;28;20461;-54
2023/01/05 12:09:40;;;;;;;3.83;1.60;;;;;;;13.76;91.81;100871.38;5054470;28;20459;-54
2023/01/05 12:12:25;;;;;;;15.13;2.90;;;;;;;14.05;90.81;100856.19;5054462;28;20453;-54